createdAt,value
2019-02-22T00:02:00.278Z,29.00
2019-02-22T00:07:03.010Z,29.27
2019-02-22T00:12:04.422Z,28.62
2019-02-22T00:17:05.816Z,28.95
2019-02-22T00:22:07.114Z,29.52
2019-02-22T00:27:08.661Z,31.12
2019-02-22T00:32:10.997Z,29.00
2019-02-22T00:37:12.397Z,31.70
2019-02-22T00:42:13.758Z,31.30
2019-02-22T00:47:15.107Z,31.80
2019-02-22T00:52:16.428Z,32.08
2019-02-22T00:57:17.824Z,29.40
2019-02-22T01:02:21.484Z,28.25
2019-02-22T01:07:22.899Z,29.27
2019-02-22T01:12:24.180Z,31.23
2019-02-22T01:17:27.005Z,36.30
2019-02-22T01:22:28.924Z,36.50
2019-02-22T01:27:30.267Z,36.93
2019-02-22T01:32:31.835Z,37.13
2019-02-22T01:37:35.239Z,37.05
2019-02-22T01:42:36.551Z,39.65
2019-02-22T01:47:37.985Z,35.28
2019-02-22T01:52:39.507Z,38.20
2019-02-22T01:57:40.851Z,35.80
2019-02-22T02:02:42.378Z,35.70
2019-02-22T02:07:43.855Z,36.65
2019-02-22T02:12:45.412Z,36.03
2019-02-22T02:17:46.984Z,34.55
2019-02-22T02:22:48.553Z,34.05
2019-02-22T02:28:00.428Z,32.00
2019-02-22T02:33:02.617Z,31.68
2019-02-22T02:38:04.878Z,32.78
2019-02-22T02:43:06.322Z,33.05
2019-02-22T02:48:07.702Z,31.82
2019-02-22T02:53:09.080Z,33.63
2019-02-22T02:58:10.619Z,32.88
2019-02-22T03:03:12.049Z,31.15
2019-02-22T03:08:14.355Z,29.90
2019-02-22T03:13:17.372Z,29.35
2019-02-22T03:18:18.731Z,30.30
2019-02-22T03:23:20.041Z,28.95
2019-02-22T03:28:21.378Z,30.35
2019-02-22T03:33:22.663Z,31.50
2019-02-22T03:38:24.006Z,34.20
2019-02-22T03:43:25.315Z,34.92
2019-02-22T03:48:28.807Z,35.23
2019-02-22T03:53:32.353Z,32.17
2019-02-22T03:58:35.116Z,30.77
2019-02-22T04:03:37.523Z,26.23
2019-02-22T04:08:38.968Z,27.48
2019-02-22T04:13:40.704Z,28.00
2019-02-22T04:18:42.158Z,35.92
2019-02-22T04:23:43.911Z,35.33
2019-02-22T04:28:45.396Z,35.10
2019-02-22T04:33:46.698Z,37.70
2019-02-22T04:38:48.046Z,33.90
2019-02-22T04:43:51.265Z,34.08
2019-02-22T04:48:52.569Z,34.08
2019-02-22T04:53:54.029Z,31.37
2019-02-22T04:58:55.480Z,31.12
2019-02-22T05:03:56.909Z,30.02
2019-02-22T05:08:58.441Z,29.27
2019-02-22T05:14:18.482Z,30.50
2019-02-22T05:19:22.109Z,29.15
2019-02-22T05:24:23.555Z,31.60
2019-02-22T05:29:24.937Z,31.90
2019-02-22T05:34:26.354Z,28.90
2019-02-22T05:39:27.639Z,28.60
2019-02-22T05:44:29.051Z,30.05
2019-02-22T05:49:30.760Z,29.80
2019-02-22T05:54:33.270Z,31.77
2019-02-22T05:59:34.581Z,29.85
2019-02-22T06:04:36.016Z,28.90
2019-02-22T06:09:37.655Z,27.95
2019-02-22T06:14:43.392Z,27.27
2019-02-22T06:19:45.128Z,27.50
2019-02-22T06:24:46.495Z,27.73
2019-02-22T06:29:49.898Z,26.82
2019-02-22T06:34:52.265Z,26.42
2019-02-22T06:39:53.673Z,31.00
2019-02-22T06:44:55.058Z,27.30
2019-02-22T06:49:56.939Z,27.95
2019-02-22T06:54:58.457Z,27.13
2019-02-22T07:00:00.847Z,27.90
2019-02-22T07:05:04.422Z,28.00
2019-02-22T07:10:09.090Z,27.62
2019-02-22T07:15:10.752Z,30.12
2019-02-22T07:20:12.421Z,27.67
2019-02-22T07:25:13.963Z,28.52
2019-02-22T07:30:15.286Z,30.68
2019-02-22T07:35:16.806Z,29.23
2019-02-22T07:40:21.535Z,29.52
2019-02-22T07:45:22.943Z,30.62
2019-02-22T07:50:24.355Z,32.23
2019-02-22T07:55:25.746Z,31.60
2019-02-22T08:00:27.169Z,32.83
2019-02-22T08:05:28.952Z,32.17
2019-02-22T08:10:30.506Z,31.52
2019-02-22T08:15:31.881Z,30.20
2019-02-22T08:20:33.241Z,29.45
2019-02-22T08:25:34.584Z,28.57
2019-02-22T08:30:37.921Z,28.65
2019-02-22T08:35:39.728Z,27.42
2019-02-22T08:40:41.195Z,27.80
2019-02-22T08:45:42.534Z,27.30
2019-02-22T08:50:49.270Z,25.75
2019-02-22T08:55:52.591Z,29.42
2019-02-22T09:00:54.410Z,28.90
2019-02-22T09:05:55.866Z,28.65
2019-02-22T09:11:00.829Z,27.80
2019-02-22T09:16:00.995Z,28.30
2019-02-22T09:21:03.074Z,28.92
2019-02-22T09:26:04.518Z,29.42
2019-02-22T09:31:07.281Z,30.32
2019-02-22T09:36:08.618Z,32.67
2019-02-22T09:41:10.158Z,29.87
2019-02-22T09:46:11.547Z,29.50
2019-02-22T09:51:13.130Z,29.12
2019-02-22T09:56:14.538Z,30.15
2019-02-22T10:01:15.827Z,28.47
2019-02-22T10:06:17.410Z,30.30
2019-02-22T10:11:18.948Z,31.07
2019-02-22T10:16:20.313Z,31.82
2019-02-22T10:21:21.885Z,32.63
2019-02-22T10:26:23.568Z,33.75
2019-02-22T10:31:25.156Z,35.10
2019-02-22T10:36:26.606Z,35.33
2019-02-22T10:41:30.128Z,37.63
2019-02-22T10:46:33.196Z,35.13
2019-02-22T10:51:34.620Z,33.85
2019-02-22T10:56:36.092Z,34.53
2019-02-22T11:01:37.604Z,33.40
2019-02-22T11:06:39.512Z,32.95
2019-02-22T11:11:42.990Z,35.88
2019-02-22T11:16:44.284Z,35.23
2019-02-22T11:21:45.612Z,35.65
2019-02-22T11:26:47.037Z,34.78
2019-02-22T11:31:48.812Z,37.23
2019-02-22T11:36:50.377Z,35.40
2019-02-22T11:41:51.700Z,34.55
2019-02-22T11:46:53.167Z,34.40
2019-02-22T11:51:55.984Z,34.67
2019-02-22T11:56:57.658Z,34.30
2019-02-22T12:01:59.450Z,33.65
2019-02-22T12:12:21.329Z,32.20
2019-02-22T12:17:22.733Z,31.95
2019-02-22T12:22:24.264Z,31.75
2019-02-22T12:27:25.574Z,29.90
2019-02-22T12:32:27.618Z,31.73
2019-02-22T12:37:29.096Z,31.70
2019-02-22T12:42:30.536Z,32.15
2019-02-22T12:47:32.053Z,29.32
2019-02-22T12:52:35.517Z,26.48
2019-02-22T12:57:37.044Z,26.02
2019-02-22T13:02:38.366Z,24.20
2019-02-22T13:07:39.880Z,26.02
2019-02-22T13:12:41.437Z,26.30
2019-02-22T13:17:42.806Z,29.20
2019-02-22T13:22:44.117Z,27.37
2019-02-22T13:27:45.496Z,26.87
2019-02-22T13:32:47.151Z,26.07
2019-02-22T13:37:49.310Z,28.38
2019-02-22T13:42:50.765Z,29.05
2019-02-22T13:47:52.512Z,29.40
2019-02-22T13:52:55.504Z,30.27
2019-02-22T13:57:56.924Z,30.77
2019-02-22T14:02:58.327Z,32.10
2019-02-22T14:08:00.109Z,30.20
2019-02-22T14:13:01.465Z,31.52
2019-02-22T14:18:03.200Z,31.87
2019-02-22T14:23:22.962Z,30.40
2019-02-22T14:28:24.429Z,31.02
2019-02-22T14:33:25.816Z,29.48
2019-02-22T14:38:27.081Z,31.65
2019-02-22T14:43:28.398Z,31.60
2019-02-22T14:48:29.693Z,28.17
2019-02-22T14:53:31.356Z,25.37
2019-02-22T14:58:33.010Z,25.55
2019-02-22T15:03:35.007Z,25.15
2019-02-22T15:08:39.528Z,21.70
2019-02-22T15:13:40.937Z,21.80
2019-02-22T15:18:42.498Z,20.12
2019-02-22T15:23:44.953Z,24.02
2019-02-22T15:28:46.266Z,26.65
2019-02-22T15:33:47.595Z,25.92
2019-02-22T15:38:48.993Z,26.50
2019-02-22T15:43:50.363Z,29.65
2019-02-22T15:48:51.690Z,30.43
2019-02-22T15:53:53.143Z,29.80
2019-02-22T15:58:54.450Z,29.55
2019-02-22T16:03:57.794Z,29.32
2019-02-22T16:08:59.183Z,30.00
2019-02-22T16:14:02.169Z,28.07
2019-02-22T16:19:04.110Z,26.35
2019-02-22T16:24:05.560Z,27.70
2019-02-22T16:29:07.136Z,25.08
2019-02-22T16:34:08.432Z,25.37
2019-02-22T16:39:10.178Z,23.98
2019-02-22T16:44:11.622Z,24.32
2019-02-22T16:49:12.944Z,22.90
2019-02-22T16:54:14.305Z,24.65
2019-02-22T16:59:16.530Z,25.57
2019-02-22T17:04:18.869Z,25.35
2019-02-22T17:09:20.394Z,25.92
2019-02-22T17:14:21.697Z,23.90
2019-02-22T17:19:23.475Z,25.15
2019-02-22T17:24:25.175Z,24.35
2019-02-22T17:29:26.596Z,22.95
2019-02-22T17:34:28.015Z,22.87
2019-02-22T17:39:29.329Z,21.77
2019-02-22T17:44:32.627Z,23.52
2019-02-22T17:49:34.163Z,23.15
2019-02-22T17:54:35.523Z,24.85
2019-02-22T17:59:36.992Z,25.97
2019-02-22T18:04:38.390Z,23.12
2019-02-22T18:09:39.805Z,23.22
2019-02-22T18:14:41.149Z,27.20
2019-02-22T18:19:42.489Z,23.77
2019-02-22T18:24:44.192Z,27.07
2019-02-22T18:29:45.609Z,25.10
2019-02-22T18:34:47.077Z,25.90
2019-02-22T18:39:48.418Z,24.72
2019-02-22T18:44:49.913Z,23.65
2019-02-22T18:49:51.290Z,24.85
2019-02-22T18:54:55.454Z,25.82
2019-02-22T18:59:56.979Z,26.87
2019-02-22T19:04:58.361Z,25.25
2019-02-22T19:09:59.679Z,25.55
2019-02-22T19:15:01.542Z,27.55
2019-02-22T19:20:08.431Z,25.62
2019-02-22T19:25:10.201Z,25.77
2019-02-22T19:30:16.014Z,26.02
2019-02-22T19:35:17.548Z,27.80
2019-02-22T19:40:25.474Z,34.08
2019-02-22T19:45:27.387Z,30.40
2019-02-22T19:50:28.918Z,27.30
2019-02-22T19:55:30.400Z,30.00
2019-02-22T20:00:32.010Z,27.05
2019-02-22T20:05:33.596Z,27.60
2019-02-22T20:10:35.089Z,28.90
2019-02-22T20:15:36.566Z,29.57
2019-02-22T20:20:38.173Z,28.67
2019-02-22T20:25:42.934Z,33.63
2019-02-22T20:30:45.202Z,31.02
2019-02-22T20:35:46.652Z,27.75
2019-02-22T20:40:51.169Z,30.65
2019-02-22T20:45:52.733Z,28.70
2019-02-22T20:50:54.049Z,28.50
2019-02-22T20:55:55.520Z,26.93
2019-02-22T21:00:56.929Z,28.02
2019-02-22T21:05:58.246Z,26.55
2019-02-22T21:10:59.826Z,25.30
2019-02-22T21:16:01.255Z,27.77
2019-02-22T21:21:02.595Z,29.60
2019-02-22T21:26:03.935Z,26.93
2019-02-22T21:31:05.251Z,25.88
2019-02-22T21:36:07.533Z,30.37
2019-02-22T21:41:27.864Z,29.40
2019-02-22T21:46:29.343Z,29.90
2019-02-22T21:51:30.724Z,29.98
2019-02-22T21:56:32.179Z,31.35
2019-02-22T22:01:33.602Z,28.98
2019-02-22T22:06:35.110Z,30.37
2019-02-22T22:11:36.508Z,30.43
2019-02-22T22:16:38.038Z,29.65
2019-02-22T22:21:39.942Z,30.37
2019-02-22T22:26:41.264Z,29.10
2019-02-22T22:31:42.747Z,29.05
2019-02-22T22:36:44.380Z,30.02
2019-02-22T22:41:46.254Z,30.12
2019-02-22T22:46:48.130Z,32.30
2019-02-22T22:51:49.889Z,30.65
2019-02-22T22:56:51.625Z,31.42
2019-02-22T23:01:54.902Z,33.35
2019-02-22T23:06:56.373Z,30.80
2019-02-22T23:11:58.159Z,32.45
2019-02-22T23:16:59.831Z,31.62
2019-02-22T23:22:01.667Z,32.65
2019-02-22T23:27:03.061Z,31.95
2019-02-22T23:32:04.955Z,33.98
2019-02-22T23:37:06.476Z,32.98
2019-02-22T23:42:07.797Z,34.90
2019-02-22T23:47:09.828Z,33.40
2019-02-22T23:52:11.288Z,33.92
2019-02-22T23:57:12.667Z,35.23
